Time;durP1;ratioP1;P1;durP2;ratioP2;P2;SDS_P1;SDS_P2;PMS_P1;PMS_P2;Temp;Humidity;BMP_temperature;BMP_pressure;BME280_temperature;BME280_humidity;BME280_pressure;Samples;Min_cycle;Max_cycle;Signal;HPM_P1;HPM_P2
2023/05/22 00:01:05;;;;;;;13.55;9.75;;;;;;;;;;6203909;28;20061;-88
2023/05/22 00:04:07;;;;;;;12.88;10.05;;;;;;;;;;6202687;28;20050;-88
2023/05/22 00:07:09;;;;;;;15.80;10.15;;;;;;;;;;6203049;28;20082;-88
2023/05/22 00:10:14;;;;;;;14.32;10.50;;;;;;;;;;6202189;28;20072;-89
2023/05/22 00:13:16;;;;;;;13.90;10.40;;;;;;;;;;6202461;28;20064;-88
2023/05/22 00:16:18;;;;;;;15.65;10.60;;;;;;;;;;6202313;28;20058;-88
2023/05/22 00:19:21;;;;;;;13.80;10.20;;;;;;;;;;6199210;28;20058;-89
2023/05/22 00:22:23;;;;;;;13.07;10.23;;;;;;;;;;6199953;28;20275;-88
2023/05/22 00:25:27;;;;;;;13.57;9.90;;;;;;;;;;6203314;28;20346;-88
2023/05/22 00:28:29;;;;;;;13.70;10.50;;;;;;;;;;6197873;28;20217;-88
2023/05/22 00:31:30;;;;;;;20.08;10.57;;;;;;;;;;6196044;28;20061;-89
2023/05/22 00:34:32;;;;;;;13.82;10.80;;;;;;;;;;6199577;28;20043;-89
2023/05/22 00:37:34;;;;;;;14.68;10.38;;;;;;;;;;6201966;28;20258;-89
2023/05/22 00:40:37;;;;;;;13.13;9.93;;;;;;;;;;6201664;28;20071;-89
2023/05/22 00:43:39;;;;;;;13.82;10.38;;;;;;;;;;6199022;28;21596;-90
2023/05/22 00:46:41;;;;;;;13.00;10.10;;;;;;;;;;6200785;28;20057;-87
2023/05/22 00:49:44;;;;;;;15.43;10.45;;;;;;;;;;6198812;28;20557;-88
2023/05/22 00:52:46;;;;;;;13.75;10.25;;;;;;;;;;6199330;28;20058;-87
2023/05/22 00:55:49;;;;;;;12.15;9.93;;;;;;;;;;6198440;28;20050;-88
2023/05/22 00:58:51;;;;;;;12.43;10.02;;;;;;;;;;6198368;28;20061;-91
2023/05/22 01:01:53;;;;;;;15.55;11.18;;;;;;;;;;6198626;28;20057;-89
2023/05/22 01:04:56;;;;;;;14.60;11.05;;;;;;;;;;6200653;28;20068;-88
2023/05/22 01:07:58;;;;;;;16.75;10.23;;;;;;;;;;6198157;28;20350;-90
2023/05/22 01:11:09;;;;;;;13.35;9.60;;;;;;;;;;6199311;28;20100;-89
2023/05/22 01:14:17;;;;;;;13.38;9.80;;;;;;;;;;6179857;28;20106;-90
2023/05/22 01:17:24;;;;;;;12.80;9.70;;;;;;;;;;6183756;28;20157;-89
2023/05/22 01:20:31;;;;;;;12.07;9.93;;;;;;;;;;6157513;28;20067;-90
2023/05/22 01:24:21;;;;;;;16.02;10.23;;;;;;;;;;6175201;28;20090;-90
2023/05/22 01:27:52;;;;;;;12.50;9.43;;;;;;;;;;6192403;28;20051;-88
2023/05/22 01:31:00;;;;;;;13.30;9.13;;;;;;;;;;6194974;28;20149;-86
2023/05/22 01:34:03;;;;;;;11.63;9.13;;;;;;;;;;6194803;28;20219;-91
2023/05/22 01:37:05;;;;;;;12.33;9.73;;;;;;;;;;6182796;28;20093;-91
2023/05/22 01:40:09;;;;;;;13.23;9.60;;;;;;;;;;6200073;28;20521;-90
2023/05/22 01:43:11;;;;;;;14.73;9.25;;;;;;;;;;6197888;28;20061;-91
2023/05/22 01:46:14;;;;;;;14.02;10.38;;;;;;;;;;6199868;28;20050;-90
2023/05/22 01:49:16;;;;;;;13.75;10.10;;;;;;;;;;6200619;28;20343;-90
2023/05/22 01:52:22;;;;;;;11.27;9.57;;;;;;;;;;6194437;28;20282;-90
2023/05/22 01:55:28;;;;;;;14.50;9.93;;;;;;;;;;6195984;28;20074;-91
2023/05/22 01:58:34;;;;;;;11.65;9.52;;;;;;;;;;6199446;28;20082;-91
2023/05/22 02:01:38;;;;;;;12.35;9.93;;;;;;;;;;6195973;28;20046;-91
2023/05/22 02:04:46;;;;;;;11.85;9.57;;;;;;;;;;6199589;28;20050;-89
2023/05/22 02:07:48;;;;;;;12.95;9.73;;;;;;;;;;6200997;28;20046;-91
2023/05/22 02:10:51;;;;;;;13.18;9.73;;;;;;;;;;6197251;28;20057;-91
2023/05/22 02:13:53;;;;;;;15.05;9.85;;;;;;;;;;6196010;28;20050;-90
2023/05/22 02:16:56;;;;;;;18.38;10.05;;;;;;;;;;6198730;28;20062;-89
2023/05/22 02:19:58;;;;;;;14.25;9.95;;;;;;;;;;6200548;28;20046;-89
2023/05/22 02:23:00;;;;;;;10.60;9.18;;;;;;;;;;6195340;28;20065;-90
2023/05/22 02:26:02;;;;;;;12.13;8.98;;;;;;;;;;6196540;28;20157;-92
2023/05/22 02:29:04;;;;;;;12.35;9.20;;;;;;;;;;6166693;28;20073;-90
2023/05/22 02:32:08;;;;;;;14.70;9.93;;;;;;;;;;6175655;28;20187;-88
2023/05/22 02:35:10;;;;;;;10.23;8.57;;;;;;;;;;6181101;28;20235;-92
2023/05/22 02:38:12;;;;;;;13.20;9.20;;;;;;;;;;6201891;28;20062;-89
2023/05/22 02:41:13;;;;;;;13.00;9.52;;;;;;;;;;6198906;28;20089;-89
2023/05/22 02:44:16;;;;;;;11.52;8.45;;;;;;;;;;6195080;28;20050;-90
2023/05/22 02:47:20;;;;;;;10.70;8.25;;;;;;;;;;6195805;28;20084;-89
2023/05/22 02:50:22;;;;;;;12.27;8.05;;;;;;;;;;6198566;28;20125;-90
2023/05/22 02:53:24;;;;;;;12.18;8.10;;;;;;;;;;6164239;28;20050;-90
2023/05/22 02:56:27;;;;;;;8.82;7.65;;;;;;;;;;6181659;28;20066;-89
2023/05/22 02:59:30;;;;;;;9.73;7.67;;;;;;;;;;6197881;28;20085;-87
2023/05/22 03:02:35;;;;;;;9.73;7.20;;;;;;;;;;6196854;28;20065;-89
2023/05/22 03:05:37;;;;;;;11.50;7.10;;;;;;;;;;6197490;28;20297;-89
2023/05/22 03:08:42;;;;;;;8.65;6.65;;;;;;;;;;6195616;28;20058;-90
2023/05/22 03:11:43;;;;;;;8.35;6.75;;;;;;;;;;6199014;28;20061;-89
2023/05/22 03:14:50;;;;;;;7.53;6.03;;;;;;;;;;6184820;28;20054;-91
2023/05/22 03:17:57;;;;;;;7.00;5.63;;;;;;;;;;6177639;28;20394;-90
2023/05/22 03:20:59;;;;;;;9.07;6.60;;;;;;;;;;6164884;28;20357;-90
2023/05/22 03:24:02;;;;;;;7.10;6.40;;;;;;;;;;6159635;28;20191;-90
2023/05/22 03:27:04;;;;;;;10.82;6.65;;;;;;;;;;6178107;28;20058;-89
2023/05/22 03:30:08;;;;;;;9.40;6.70;;;;;;;;;;6173116;28;20047;-90
2023/05/22 03:33:19;;;;;;;7.32;5.97;;;;;;;;;;6173914;28;20074;-89
2023/05/22 03:36:22;;;;;;;7.18;6.15;;;;;;;;;;6203413;28;20293;-90
2023/05/22 03:39:23;;;;;;;9.70;5.75;;;;;;;;;;6180376;28;20242;-88
2023/05/22 03:42:25;;;;;;;8.07;6.15;;;;;;;;;;6180170;28;20340;-88
2023/05/22 03:45:27;;;;;;;9.60;6.88;;;;;;;;;;6175288;28;20250;-88
2023/05/22 03:48:31;;;;;;;9.00;6.50;;;;;;;;;;6189374;28;20078;-88
2023/05/22 03:51:33;;;;;;;9.93;6.90;;;;;;;;;;6177651;28;20062;-91
2023/05/22 03:54:34;;;;;;;8.80;6.88;;;;;;;;;;6190485;28;20071;-90
2023/05/22 03:57:36;;;;;;;7.93;6.57;;;;;;;;;;6163386;28;20054;-90
2023/05/22 04:00:38;;;;;;;8.88;6.38;;;;;;;;;;6164534;28;20058;-89
2023/05/22 04:03:43;;;;;;;10.60;7.05;;;;;;;;;;6174298;28;20070;-89
2023/05/22 04:06:45;;;;;;;9.20;6.50;;;;;;;;;;6165369;28;20089;-89
2023/05/22 04:09:47;;;;;;;10.25;6.45;;;;;;;;;;6196017;28;20056;-91
2023/05/22 04:12:49;;;;;;;7.40;6.45;;;;;;;;;;6198602;28;20055;-90
2023/05/22 04:15:52;;;;;;;8.25;6.30;;;;;;;;;;6201535;28;20050;-88
2023/05/22 04:19:05;;;;;;;8.73;6.70;;;;;;;;;;6201595;28;20322;-89
2023/05/22 04:22:07;;;;;;;7.03;6.25;;;;;;;;;;6170133;28;20054;-90
2023/05/22 04:25:10;;;;;;;8.52;6.65;;;;;;;;;;6186365;28;20054;-90
2023/05/22 04:28:12;;;;;;;7.97;6.43;;;;;;;;;;6184665;28;20066;-90
2023/05/22 04:31:14;;;;;;;7.90;6.03;;;;;;;;;;6192711;28;20077;-87
2023/05/22 04:34:17;;;;;;;7.65;6.32;;;;;;;;;;6194488;28;20077;-93
2023/05/22 04:37:21;;;;;;;8.85;6.10;;;;;;;;;;6195714;28;20319;-90
2023/05/22 04:40:25;;;;;;;8.48;6.25;;;;;;;;;;6194259;28;20057;-93
2023/05/22 04:43:26;;;;;;;8.85;6.85;;;;;;;;;;6198602;28;20070;-91
2023/05/22 04:46:28;;;;;;;8.60;6.63;;;;;;;;;;6199959;28;20065;-90
2023/05/22 04:49:32;;;;;;;7.38;5.30;;;;;;;;;;6179406;28;20046;-89
2023/05/22 04:52:37;;;;;;;9.60;6.28;;;;;;;;;;6182867;28;20235;-90
2023/05/22 04:55:39;;;;;;;8.27;6.22;;;;;;;;;;6199129;28;20053;-92
2023/05/22 04:58:41;;;;;;;7.00;5.88;;;;;;;;;;6201035;28;20109;-93
2023/05/22 05:01:44;;;;;;;8.07;5.75;;;;;;;;;;6196258;28;20089;-92
2023/05/22 05:04:47;;;;;;;7.50;5.90;;;;;;;;;;6181720;28;20163;-94
2023/05/22 05:07:50;;;;;;;7.85;5.63;;;;;;;;;;6176811;28;20059;-95
2023/05/22 05:10:52;;;;;;;10.25;6.05;;;;;;;;;;6179767;28;20047;-95
2023/05/22 05:13:54;;;;;;;8.13;6.85;;;;;;;;;;6195638;28;20042;-96
2023/05/22 05:16:57;;;;;;;8.93;6.32;;;;;;;;;;6197811;28;20057;-95
2023/05/22 05:20:09;;;;;;;9.80;6.82;;;;;;;;;;6169998;28;20049;-95
2023/05/22 05:23:21;;;;;;;7.50;6.70;;;;;;;;;;6195392;28;20117;-93
2023/05/22 05:26:28;;;;;;;7.88;7.07;;;;;;;;;;6199402;28;20066;-94
2023/05/22 05:29:30;;;;;;;8.35;6.93;;;;;;;;;;6166885;28;20042;-92
2023/05/22 05:32:31;;;;;;;9.98;6.90;;;;;;;;;;6199081;28;20081;-96
2023/05/22 05:35:37;;;;;;;10.40;7.10;;;;;;;;;;6198236;28;20046;-94
2023/05/22 05:38:39;;;;;;;8.77;6.25;;;;;;;;;;6198664;28;20250;-90
2023/05/22 05:41:41;;;;;;;10.23;7.00;;;;;;;;;;6196138;28;20060;-94
2023/05/22 05:44:43;;;;;;;7.28;6.38;;;;;;;;;;6179137;28;20046;-90
2023/05/22 05:47:45;;;;;;;10.07;6.20;;;;;;;;;;6194330;28;20278;-93
2023/05/22 05:50:48;;;;;;;7.45;6.00;;;;;;;;;;6179142;28;20062;-93
2023/05/22 05:53:50;;;;;;;9.43;6.60;;;;;;;;;;6195431;28;20338;-94
2023/05/22 05:56:52;;;;;;;8.25;5.65;;;;;;;;;;6180293;28;20133;-92
2023/05/22 05:59:54;;;;;;;7.90;5.78;;;;;;;;;;6183255;28;20315;-96
2023/05/22 06:02:56;;;;;;;11.98;6.22;;;;;;;;;;6195919;28;20050;-96
2023/05/22 06:06:01;;;;;;;7.53;6.10;;;;;;;;;;6197534;28;20057;-96
2023/05/22 06:09:05;;;;;;;7.00;5.45;;;;;;;;;;6183071;28;20054;-95
2023/05/22 06:12:11;;;;;;;6.95;5.50;;;;;;;;;;6194630;28;20062;-89
2023/05/22 06:15:13;;;;;;;6.72;5.43;;;;;;;;;;6179127;28;20061;-89
2023/05/22 06:18:16;;;;;;;9.90;5.45;;;;;;;;;;6177774;28;20046;-94
2023/05/22 06:21:20;;;;;;;7.68;5.32;;;;;;;;;;6187034;28;20066;-89
2023/05/22 06:24:22;;;;;;;7.80;5.55;;;;;;;;;;6167796;28;20066;-87
2023/05/22 06:27:26;;;;;;;7.72;5.20;;;;;;;;;;6165124;28;20086;-79
2023/05/22 06:30:27;;;;;;;12.27;5.45;;;;;;;;;;6163408;28;20063;-78
2023/05/22 06:33:29;;;;;;;7.60;5.38;;;;;;;;;;6179788;28;20066;-79
2023/05/22 06:36:33;;;;;;;6.65;4.97;;;;;;;;;;6193649;28;20061;-79
2023/05/22 06:39:35;;;;;;;10.18;5.50;;;;;;;;;;6188758;28;20140;-80
2023/05/22 06:42:37;;;;;;;14.32;5.75;;;;;;;;;;6189945;28;20046;-82
2023/05/22 06:45:38;;;;;;;6.65;5.40;;;;;;;;;;6188900;28;20054;-79
2023/05/22 06:48:40;;;;;;;10.55;5.47;;;;;;;;;;6191703;28;20274;-81
2023/05/22 06:51:43;;;;;;;7.03;4.85;;;;;;;;;;6199318;28;20050;-80
2023/05/22 06:54:45;;;;;;;8.25;5.82;;;;;;;;;;6199728;28;20231;-84
2023/05/22 06:57:47;;;;;;;9.50;5.43;;;;;;;;;;6201128;28;20061;-88
2023/05/22 07:00:49;;;;;;;7.43;5.75;;;;;;;;;;6199406;28;20069;-89
2023/05/22 07:03:50;;;;;;;7.53;5.82;;;;;;;;;;6185237;28;20227;-88
2023/05/22 07:06:54;;;;;;;11.85;5.57;;;;;;;;;;6201262;28;20122;-88
2023/05/22 07:09:55;;;;;;;9.55;5.45;;;;;;;;;;6197418;28;20224;-89
2023/05/22 07:12:57;;;;;;;12.10;6.05;;;;;;;;;;6200478;28;20067;-87
2023/05/22 07:15:59;;;;;;;7.00;5.38;;;;;;;;;;6199837;28;20061;-88
2023/05/22 07:19:02;;;;;;;10.45;6.10;;;;;;;;;;6200570;28;20093;-89
2023/05/22 07:22:06;;;;;;;10.98;5.90;;;;;;;;;;6199499;28;20061;-88
2023/05/22 07:25:09;;;;;;;8.77;6.20;;;;;;;;;;6203690;28;20046;-87
2023/05/22 07:28:10;;;;;;;12.10;6.93;;;;;;;;;;6196386;28;20046;-88
2023/05/22 07:31:12;;;;;;;8.20;6.05;;;;;;;;;;6201306;28;20701;-87
2023/05/22 07:34:14;;;;;;;11.70;6.70;;;;;;;;;;6201637;28;20050;-87
2023/05/22 07:37:17;;;;;;;8.90;6.10;;;;;;;;;;6198768;28;20073;-86
2023/05/22 07:40:19;;;;;;;7.50;5.93;;;;;;;;;;6197506;28;20058;-89
2023/05/22 07:43:21;;;;;;;7.00;5.80;;;;;;;;;;6199874;28;20353;-88
2023/05/22 07:46:22;;;;;;;8.80;5.15;;;;;;;;;;6201350;28;20058;-88
2023/05/22 07:49:24;;;;;;;10.00;5.85;;;;;;;;;;6181687;28;20054;-88
2023/05/22 07:52:27;;;;;;;10.38;5.28;;;;;;;;;;6198266;28;20054;-89
2023/05/22 07:55:29;;;;;;;6.45;4.82;;;;;;;;;;6199472;28;20069;-87
2023/05/22 07:58:32;;;;;;;7.65;5.47;;;;;;;;;;6195329;28;20054;-87
2023/05/22 08:01:36;;;;;;;5.65;4.65;;;;;;;;;;6195171;28;20050;-90
2023/05/22 08:04:37;;;;;;;;;;;;;;;;;;6200630;28;20080;-91
2023/05/22 08:07:40;;;;;;;7.45;4.72;;;;;;;;;;6182761;28;19957;-88
2023/05/22 08:10:42;;;;;;;5.68;4.60;;;;;;;;;;6193989;28;20073;-88
2023/05/22 08:13:44;;;;;;;6.75;4.90;;;;;;;;;;6196087;28;20054;-89
2023/05/22 08:16:45;;;;;;;7.68;4.30;;;;;;;;;;6199444;28;20334;-90
2023/05/22 08:19:47;;;;;;;6.43;4.50;;;;;;;;;;6198261;28;20046;-90
2023/05/22 08:22:50;;;;;;;5.93;4.63;;;;;;;;;;6200732;28;20094;-90
2023/05/22 08:25:52;;;;;;;8.23;4.88;;;;;;;;;;6198125;28;20326;-90
2023/05/22 08:28:54;;;;;;;6.43;4.65;;;;;;;;;;6198600;28;20066;-89
2023/05/22 08:31:56;;;;;;;6.30;4.80;;;;;;;;;;6184509;28;20081;-89
2023/05/22 08:34:59;;;;;;;6.50;5.00;;;;;;;;;;6200237;28;20070;-88
2023/05/22 08:38:02;;;;;;;6.43;4.53;;;;;;;;;;6197972;28;20121;-88
2023/05/22 08:41:05;;;;;;;7.05;4.70;;;;;;;;;;6182387;28;20077;-90
2023/05/22 08:44:07;;;;;;;6.28;4.63;;;;;;;;;;6184241;28;20063;-89
2023/05/22 08:47:10;;;;;;;8.55;4.75;;;;;;;;;;6196502;28;20117;-87
2023/05/22 08:50:12;;;;;;;7.15;4.80;;;;;;;;;;6198004;28;20077;-89
2023/05/22 08:53:16;;;;;;;8.50;5.18;;;;;;;;;;6177442;28;20050;-87
2023/05/22 08:56:19;;;;;;;7.75;5.28;;;;;;;;;;6198081;28;20058;-88
2023/05/22 08:59:22;;;;;;;7.90;5.00;;;;;;;;;;6195024;28;20347;-89
2023/05/22 09:05:40;;;;;;;11.38;5.72;;;;;;;;;;6195200;28;20109;-89
2023/05/22 09:08:52;;;;;;;7.18;5.38;;;;;;;;;;6197268;28;20136;-89
2023/05/22 09:11:55;;;;;;;7.18;4.88;;;;;;;;;;6180989;28;20054;-89
2023/05/22 09:14:58;;;;;;;;;;;;;;;;;;6196046;28;20346;-88
2023/05/22 09:18:00;;;;;;;9.00;5.35;;;;;;;;;;6196510;28;20000;-90
2023/05/22 09:21:02;;;;;;;11.23;6.50;;;;;;;;;;6181010;28;20047;-88
2023/05/22 09:24:09;;;;;;;9.30;6.50;;;;;;;;;;6197348;28;20294;-87
2023/05/22 09:27:11;;;;;;;8.23;7.15;;;;;;;;;;6195141;28;20078;-88
2023/05/22 09:30:16;;;;;;;12.73;6.85;;;;;;;;;;6195880;28;20044;-88
2023/05/22 09:33:18;;;;;;;10.13;7.32;;;;;;;;;;6195063;28;20058;-86
2023/05/22 09:36:20;;;;;;;12.18;7.25;;;;;;;;;;6196756;28;20112;-88
2023/05/22 09:39:24;;;;;;;9.57;7.82;;;;;;;;;;6194557;28;20054;-88
2023/05/22 09:42:26;;;;;;;13.40;7.95;;;;;;;;;;6180170;28;20042;-89
2023/05/22 09:45:28;;;;;;;9.33;7.10;;;;;;;;;;6179008;28;20050;-87
2023/05/22 09:48:34;;;;;;;11.95;7.80;;;;;;;;;;6195202;28;20054;-87
2023/05/22 09:51:38;;;;;;;10.57;7.88;;;;;;;;;;6195350;28;20354;-89
2023/05/22 09:54:45;;;;;;;12.15;8.05;;;;;;;;;;6196764;28;20081;-86
2023/05/22 09:57:48;;;;;;;11.07;7.90;;;;;;;;;;6195387;28;20065;-88
2023/05/22 10:00:50;;;;;;;12.23;9.15;;;;;;;;;;6195615;28;20085;-87
2023/05/22 10:03:53;;;;;;;13.15;7.90;;;;;;;;;;6195716;28;20391;-88
2023/05/22 10:06:57;;;;;;;9.82;7.10;;;;;;;;;;6195840;28;20054;-87
2023/05/22 10:10:04;;;;;;;9.52;6.82;;;;;;;;;;6171108;28;20054;-89
2023/05/22 10:13:06;;;;;;;13.63;8.63;;;;;;;;;;6195684;28;20281;-86
2023/05/22 10:16:10;;;;;;;11.75;7.03;;;;;;;;;;6192965;28;20377;-89
2023/05/22 10:19:13;;;;;;;9.38;6.43;;;;;;;;;;6196488;28;20061;-89
2023/05/22 10:22:19;;;;;;;8.98;6.85;;;;;;;;;;6195223;28;20062;-86
2023/05/22 10:25:24;;;;;;;8.73;7.35;;;;;;;;;;6195323;28;20050;-89
2023/05/22 10:28:30;;;;;;;8.88;6.55;;;;;;;;;;6195554;28;20070;-88
2023/05/22 10:31:37;;;;;;;6.65;5.40;;;;;;;;;;6194682;28;20069;-89
2023/05/22 10:34:50;;;;;;;10.82;6.10;;;;;;;;;;6196449;28;20440;-87
2023/05/22 10:37:53;;;;;;;9.65;7.10;;;;;;;;;;6193319;28;20137;-88
2023/05/22 10:40:58;;;;;;;8.45;5.95;;;;;;;;;;6197335;28;20074;-88
2023/05/22 10:44:02;;;;;;;9.07;5.63;;;;;;;;;;6195644;28;20050;-88
2023/05/22 10:47:10;;;;;;;9.27;5.15;;;;;;;;;;6195724;28;20059;-88
2023/05/22 10:50:12;;;;;;;7.88;5.82;;;;;;;;;;6193127;28;20054;-92
2023/05/22 10:53:22;;;;;;;5.50;4.82;;;;;;;;;;6176773;28;20093;-87
2023/05/22 10:56:35;;;;;;;5.60;4.15;;;;;;;;;;6193482;28;20185;-88
2023/05/22 10:59:37;;;;;;;7.38;5.07;;;;;;;;;;6192652;28;20410;-89
2023/05/22 11:02:40;;;;;;;6.55;5.38;;;;;;;;;;6179715;28;20058;-87
2023/05/22 11:05:42;;;;;;;6.47;5.20;;;;;;;;;;6195333;28;20238;-88
2023/05/22 11:08:45;;;;;;;5.87;4.60;;;;;;;;;;6193753;28;20057;-88
2023/05/22 11:12:21;;;;;;;9.13;4.78;;;;;;;;;;6192202;28;20069;-86
2023/05/22 11:15:31;;;;;;;10.07;5.07;;;;;;;;;;6192639;28;20067;-87
2023/05/22 11:18:33;;;;;;;5.53;4.60;;;;;;;;;;6175381;28;20054;-88
2023/05/22 11:21:37;;;;;;;5.47;4.70;;;;;;;;;;6190912;28;20058;-86
2023/05/22 11:24:40;;;;;;;5.45;4.65;;;;;;;;;;6191635;28;20092;-83
2023/05/22 11:27:44;;;;;;;7.75;5.22;;;;;;;;;;6193379;28;20110;-86
2023/05/22 11:30:46;;;;;;;7.50;5.80;;;;;;;;;;6176040;28;20077;-87
2023/05/22 11:33:48;;;;;;;7.20;5.43;;;;;;;;;;6196870;28;20065;-89
2023/05/22 11:36:50;;;;;;;6.03;5.00;;;;;;;;;;6200814;28;20192;-88
2023/05/22 11:39:55;;;;;;;6.37;5.30;;;;;;;;;;6199751;28;20042;-88
2023/05/22 11:42:58;;;;;;;6.82;5.68;;;;;;;;;;6207341;28;20354;-87
2023/05/22 11:46:01;;;;;;;6.82;5.18;;;;;;;;;;6210960;28;20061;-87
2023/05/22 11:49:03;;;;;;;6.85;4.93;;;;;;;;;;6198500;28;20054;-88
2023/05/22 11:52:06;;;;;;;7.07;5.47;;;;;;;;;;6196564;28;20065;-89
2023/05/22 11:55:09;;;;;;;5.68;5.15;;;;;;;;;;6196505;28;20125;-86
2023/05/22 11:58:12;;;;;;;8.32;5.43;;;;;;;;;;6197609;28;20136;-87
2023/05/22 12:01:14;;;;;;;7.85;5.65;;;;;;;;;;6196675;28;20062;-88
2023/05/22 12:04:16;;;;;;;5.83;5.07;;;;;;;;;;6198297;28;20327;-88
2023/05/22 12:07:17;;;;;;;6.90;5.53;;;;;;;;;;6195166;28;20123;-88
2023/05/22 12:10:19;;;;;;;6.97;6.27;;;;;;;;;;6197318;28;20128;-88
2023/05/22 12:13:31;;;;;;;8.20;5.30;;;;;;;;;;6198314;28;20054;-89
2023/05/22 12:16:35;;;;;;;8.30;6.30;;;;;;;;;;6198615;28;20062;-88
2023/05/22 12:19:39;;;;;;;7.88;6.22;;;;;;;;;;6195226;28;20043;-88
2023/05/22 12:22:42;;;;;;;7.72;6.93;;;;;;;;;;6198112;28;20231;-88
2023/05/22 12:25:44;;;;;;;7.88;6.22;;;;;;;;;;6197992;28;20121;-89
2023/05/22 12:28:47;;;;;;;6.63;5.57;;;;;;;;;;6197344;28;21555;-87
2023/05/22 12:31:49;;;;;;;6.75;5.53;;;;;;;;;;6196845;28;20073;-89
2023/05/22 12:34:50;;;;;;;8.67;5.50;;;;;;;;;;6195828;28;20306;-88
2023/05/22 12:37:52;;;;;;;6.57;5.43;;;;;;;;;;6194891;28;20118;-89
2023/05/22 12:40:55;;;;;;;6.77;6.10;;;;;;;;;;6198212;28;20065;-89
2023/05/22 12:44:00;;;;;;;8.48;5.80;;;;;;;;;;6197299;28;20330;-89
2023/05/22 12:47:02;;;;;;;7.65;4.78;;;;;;;;;;6196815;28;20054;-88
2023/05/22 12:50:05;;;;;;;8.93;5.03;;;;;;;;;;6180424;28;20058;-89
2023/05/22 12:53:06;;;;;;;9.02;5.47;;;;;;;;;;6182132;28;20066;-89
2023/05/22 12:56:08;;;;;;;5.78;5.20;;;;;;;;;;6198134;28;20046;-89
2023/05/22 12:59:11;;;;;;;6.55;5.30;;;;;;;;;;6195909;28;20074;-89
2023/05/22 13:02:13;;;;;;;5.03;4.53;;;;;;;;;;6195916;28;20377;-87
2023/05/22 13:05:15;;;;;;;7.00;4.90;;;;;;;;;;6195644;28;20449;-88
2023/05/22 13:08:19;;;;;;;5.45;4.95;;;;;;;;;;6182543;28;20053;-89
2023/05/22 13:11:22;;;;;;;6.22;4.78;;;;;;;;;;6195962;28;20058;-88
2023/05/22 13:14:25;;;;;;;8.70;4.75;;;;;;;;;;6197902;28;20067;-90
2023/05/22 13:17:27;;;;;;;5.95;5.35;;;;;;;;;;6193548;28;20358;-88
2023/05/22 13:20:29;;;;;;;6.45;5.10;;;;;;;;;;6196959;28;20059;-88
2023/05/22 13:23:31;;;;;;;5.55;4.93;;;;;;;;;;6197671;28;20129;-88
2023/05/22 13:26:32;;;;;;;7.78;4.97;;;;;;;;;;6193354;28;20285;-86
2023/05/22 13:29:35;;;;;;;6.00;5.32;;;;;;;;;;6196920;28;20339;-88
2023/05/22 13:32:37;;;;;;;5.75;4.97;;;;;;;;;;6175569;28;20591;-89
2023/05/22 13:35:39;;;;;;;6.82;5.25;;;;;;;;;;6195683;28;20334;-89
2023/05/22 13:38:40;;;;;;;6.40;4.80;;;;;;;;;;6196419;28;20050;-88
2023/05/22 13:41:42;;;;;;;5.80;4.90;;;;;;;;;;6195785;28;20058;-88
2023/05/22 13:44:45;;;;;;;6.07;5.47;;;;;;;;;;6195226;28;20058;-89
2023/05/22 13:47:48;;;;;;;8.45;5.30;;;;;;;;;;6194809;28;20156;-88
2023/05/22 13:50:50;;;;;;;8.63;5.47;;;;;;;;;;6194159;28;21274;-88
2023/05/22 13:53:51;;;;;;;6.90;4.88;;;;;;;;;;6195282;28;20046;-88
2023/05/22 13:56:53;;;;;;;7.93;5.18;;;;;;;;;;6193456;28;20038;-88
2023/05/22 13:59:56;;;;;;;5.22;4.72;;;;;;;;;;6193461;28;21709;-90
2023/05/22 14:02:58;;;;;;;6.82;5.03;;;;;;;;;;6192824;28;20347;-91
2023/05/22 14:05:59;;;;;;;5.80;5.10;;;;;;;;;;6192387;28;20054;-86
2023/05/22 14:09:02;;;;;;;;;;;;;;;;;;6194826;28;20105;-89
2023/05/22 14:12:04;;;;;;;7.47;5.40;;;;;;;;;;6187882;28;20012;-90
2023/05/22 14:15:08;;;;;;;6.30;5.70;;;;;;;;;;6194431;28;20051;-89
2023/05/22 14:18:10;;;;;;;5.72;5.22;;;;;;;;;;6196592;28;20042;-88
2023/05/22 14:21:12;;;;;;;;;;;;;;;;;;6195660;28;20104;-88
2023/05/22 14:24:13;;;;;;;6.50;5.67;;;;;;;;;;6193880;28;19926;-90
2023/05/22 14:27:15;;;;;;;9.10;5.80;;;;;;;;;;6191636;28;20059;-90
2023/05/22 14:30:18;;;;;;;7.78;6.07;;;;;;;;;;6193148;28;20065;-89
2023/05/22 14:33:20;;;;;;;8.65;5.32;;;;;;;;;;6193876;28;20581;-88
2023/05/22 14:36:22;;;;;;;7.00;5.40;;;;;;;;;;6193886;28;20080;-86
2023/05/22 14:39:24;;;;;;;7.57;6.13;;;;;;;;;;6192915;28;20074;-87
2023/05/22 14:42:26;;;;;;;7.28;5.45;;;;;;;;;;6193704;28;20089;-87
2023/05/22 14:45:29;;;;;;;7.15;5.88;;;;;;;;;;6193947;28;20051;-86
2023/05/22 14:48:31;;;;;;;6.63;5.90;;;;;;;;;;6194673;28;20085;-89
2023/05/22 14:51:32;;;;;;;6.80;5.85;;;;;;;;;;6192052;28;20207;-86
2023/05/22 14:54:34;;;;;;;8.93;5.90;;;;;;;;;;6192754;28;20054;-86
2023/05/22 14:57:36;;;;;;;10.25;5.60;;;;;;;;;;6190590;28;20062;-86
2023/05/22 15:00:39;;;;;;;7.32;5.32;;;;;;;;;;6193423;28;20065;-87
2023/05/22 15:03:42;;;;;;;7.38;6.00;;;;;;;;;;6194302;28;20118;-89
2023/05/22 15:06:43;;;;;;;;;;;;;;;;;;6193875;28;20699;-87
2023/05/22 15:09:45;;;;;;;7.70;5.72;;;;;;;;;;6195755;28;19926;-88
2023/05/22 15:12:47;;;;;;;8.48;5.70;;;;;;;;;;6197026;28;20200;-87
2023/05/22 15:15:50;;;;;;;8.43;5.80;;;;;;;;;;6195665;28;20060;-87
2023/05/22 15:18:52;;;;;;;9.38;5.88;;;;;;;;;;6198382;28;20074;-89
2023/05/22 15:21:54;;;;;;;8.30;5.75;;;;;;;;;;6194819;28;20283;-89
2023/05/22 15:25:04;;;;;;;8.80;5.93;;;;;;;;;;6197370;28;20105;-88
2023/05/22 15:28:06;;;;;;;6.30;5.60;;;;;;;;;;6198444;28;20054;-90
2023/05/22 15:31:10;;;;;;;7.15;5.90;;;;;;;;;;6178865;28;20109;-88
2023/05/22 15:34:11;;;;;;;8.00;6.00;;;;;;;;;;6191344;28;20334;-87
2023/05/22 15:37:13;;;;;;;7.70;6.05;;;;;;;;;;6195680;28;20235;-87
2023/05/22 15:40:17;;;;;;;8.45;5.57;;;;;;;;;;6181985;28;20062;-87
2023/05/22 15:43:18;;;;;;;8.40;5.90;;;;;;;;;;6195480;28;20138;-86
2023/05/22 15:46:21;;;;;;;6.22;5.43;;;;;;;;;;6198453;28;20062;-88
2023/05/22 15:49:23;;;;;;;8.05;6.13;;;;;;;;;;6197807;28;20235;-89
2023/05/22 15:52:25;;;;;;;9.13;6.00;;;;;;;;;;6196386;28;20070;-86
2023/05/22 15:55:26;;;;;;;7.43;5.40;;;;;;;;;;6195485;28;20043;-85
2023/05/22 15:58:29;;;;;;;10.02;5.35;;;;;;;;;;6198048;28;20094;-89
2023/05/22 16:01:32;;;;;;;6.80;5.80;;;;;;;;;;6194641;28;20331;-87
2023/05/22 16:04:33;;;;;;;6.88;5.32;;;;;;;;;;6183297;28;20243;-86
2023/05/22 16:07:35;;;;;;;9.55;5.47;;;;;;;;;;6194061;28;20046;-86
2023/05/22 16:10:40;;;;;;;7.13;5.78;;;;;;;;;;6194427;28;20051;-85
2023/05/22 16:13:41;;;;;;;8.68;5.65;;;;;;;;;;6193373;28;20266;-87
2023/05/22 16:16:45;;;;;;;7.05;5.10;;;;;;;;;;6195291;28;20322;-87
2023/05/22 16:19:47;;;;;;;6.70;5.07;;;;;;;;;;6196944;28;21327;-87
2023/05/22 16:22:48;;;;;;;5.97;5.38;;;;;;;;;;6181101;28;20046;-88
2023/05/22 16:25:50;;;;;;;6.90;5.07;;;;;;;;;;6194896;28;20052;-87
2023/05/22 16:28:52;;;;;;;7.88;5.15;;;;;;;;;;6197017;28;20054;-84
2023/05/22 16:31:56;;;;;;;6.70;5.25;;;;;;;;;;6196046;28;20058;-87
2023/05/22 16:34:58;;;;;;;6.70;5.30;;;;;;;;;;6197002;28;20058;-87
2023/05/22 16:38:00;;;;;;;6.50;5.07;;;;;;;;;;6196408;28;20046;-87
2023/05/22 16:41:01;;;;;;;5.75;5.18;;;;;;;;;;6194411;28;20094;-88
2023/05/22 16:44:03;;;;;;;7.03;5.38;;;;;;;;;;6195531;28;20058;-89
2023/05/22 16:47:06;;;;;;;8.18;5.32;;;;;;;;;;6196279;28;20077;-86
2023/05/22 16:50:08;;;;;;;7.25;5.68;;;;;;;;;;6187747;28;20250;-87
2023/05/22 16:53:10;;;;;;;6.10;5.50;;;;;;;;;;6169863;28;20107;-87
2023/05/22 16:56:12;;;;;;;9.85;6.18;;;;;;;;;;6171224;28;20046;-87
2023/05/22 16:59:15;;;;;;;6.13;5.40;;;;;;;;;;6170492;28;20059;-88
2023/05/22 17:02:18;;;;;;;7.20;5.63;;;;;;;;;;6171156;28;20063;-86
2023/05/22 17:05:20;;;;;;;7.75;5.78;;;;;;;;;;6170849;28;20093;-89
2023/05/22 17:08:22;;;;;;;7.13;6.30;;;;;;;;;;6171656;28;20055;-87
2023/05/22 17:11:24;;;;;;;6.43;5.75;;;;;;;;;;6169892;28;20063;-87
2023/05/22 17:14:26;;;;;;;6.05;5.20;;;;;;;;;;6168872;28;20078;-86
2023/05/22 17:17:29;;;;;;;6.60;5.63;;;;;;;;;;6172167;28;20059;-87
2023/05/22 17:20:33;;;;;;;;;;;;;;;;;;6195987;28;20058;-88
2023/05/22 17:23:36;;;;;;;9.30;5.35;;;;;;;;;;6174158;28;19925;-86
2023/05/22 17:26:37;;;;;;;9.57;5.93;;;;;;;;;;6172354;28;20270;-88
2023/05/22 17:29:39;;;;;;;5.95;5.35;;;;;;;;;;6169175;28;20215;-86
2023/05/22 17:32:43;;;;;;;7.53;5.60;;;;;;;;;;6171308;28;20343;-88
2023/05/22 17:35:46;;;;;;;7.82;5.75;;;;;;;;;;6171063;28;20065;-87
2023/05/22 17:38:49;;;;;;;8.15;5.45;;;;;;;;;;6170067;28;20082;-87
2023/05/22 17:41:51;;;;;;;7.70;5.90;;;;;;;;;;6170669;28;20378;-87
2023/05/22 17:44:53;;;;;;;7.75;5.88;;;;;;;;;;6172759;28;20055;-87
2023/05/22 17:47:56;;;;;;;6.60;5.90;;;;;;;;;;6168954;28;20058;-87
2023/05/22 17:50:58;;;;;;;6.82;5.10;;;;;;;;;;6168884;28;20051;-86
2023/05/22 17:54:00;;;;;;;6.93;5.82;;;;;;;;;;6170503;28;20108;-87
2023/05/22 17:57:02;;;;;;;7.15;5.32;;;;;;;;;;6171467;28;20335;-87
2023/05/22 18:00:08;;;;;;;10.85;6.07;;;;;;;;;;6170826;28;20067;-86
2023/05/22 18:03:11;;;;;;;9.25;5.25;;;;;;;;;;6170626;28;20231;-87
2023/05/22 18:06:13;;;;;;;9.40;5.03;;;;;;;;;;6193361;28;20054;-87
2023/05/22 18:09:15;;;;;;;7.35;5.15;;;;;;;;;;6195140;28;20054;-86
2023/05/22 18:12:17;;;;;;;6.72;5.40;;;;;;;;;;6193297;28;20062;-87
2023/05/22 18:15:19;;;;;;;7.38;5.28;;;;;;;;;;6192609;28;20062;-85
2023/05/22 18:18:22;;;;;;;8.57;5.95;;;;;;;;;;6195180;28;20061;-88